Airport View

Enter AWOS ICAO identifier for current METAR.

ex. KFNL

KGPZ 031656Z AUTO 00000KT 6SM HZ SCT044 BKN055 30/20 A3014 RMK AO2 SLP201 T03000200

3 Jul 2020 17:02

Frequency: 118.425

Phone: 218-326-8337

Other Area AWOS: KHIB - KXVG - KFOZ - KHZX

TAF KHIB 031137Z 0312/0412 00000KT 6SM BR SCT250 FM031400 VRB04KT P6SM FEW250 FM031700 VRB04KT P6SM SCT060 FM040900 00000KT 3SM BR FEW060